sensor_id;sensor_type;location;lat;lon;timestamp;temperature;humidity
3071;DHT22;1546;47.208;9.038;2022-12-10T00:00:27;4.30;99.90
3071;DHT22;1546;47.208;9.038;2022-12-10T00:02:54;4.40;99.90
3071;DHT22;1546;47.208;9.038;2022-12-10T00:05:21;4.50;99.90
3071;DHT22;1546;47.208;9.038;2022-12-10T00:07:48;4.60;99.90
3071;DHT22;1546;47.208;9.038;2022-12-10T00:10:16;4.50;99.90
3071;DHT22;1546;47.208;9.038;2022-12-10T00:12:43;4.60;99.90
3071;DHT22;1546;47.208;9.038;2022-12-10T00:15:10;4.60;99.90
3071;DHT22;1546;47.208;9.038;2022-12-10T00:17:37;4.60;99.90
3071;DHT22;1546;47.208;9.038;2022-12-10T00:20:05;4.70;99.90
3071;DHT22;1546;47.208;9.038;2022-12-10T00:22:32;4.60;99.90
3071;DHT22;1546;47.208;9.038;2022-12-10T00:24:58;4.60;99.90
3071;DHT22;1546;47.208;9.038;2022-12-10T00:27:26;4.60;99.90
3071;DHT22;1546;47.208;9.038;2022-12-10T00:29:53;4.70;99.90
3071;DHT22;1546;47.208;9.038;2022-12-10T00:32:20;4.60;99.90
3071;DHT22;1546;47.208;9.038;2022-12-10T00:34:47;4.70;99.90
3071;DHT22;1546;47.208;9.038;2022-12-10T00:37:14;4.70;99.90
3071;DHT22;1546;47.208;9.038;2022-12-10T00:39:40;4.70;99.90
3071;DHT22;1546;47.208;9.038;2022-12-10T00:42:07;4.70;99.90
3071;DHT22;1546;47.208;9.038;2022-12-10T00:44:35;4.70;99.90
3071;DHT22;1546;47.208;9.038;2022-12-10T00:47:02;4.70;99.90
3071;DHT22;1546;47.208;9.038;2022-12-10T00:49:29;4.80;99.90
3071;DHT22;1546;47.208;9.038;2022-12-10T00:51:56;4.70;99.90
3071;DHT22;1546;47.208;9.038;2022-12-10T00:54:22;4.70;99.90
3071;DHT22;1546;47.208;9.038;2022-12-10T00:56:49;4.60;99.90
3071;DHT22;1546;47.208;9.038;2022-12-10T00:59:16;4.70;99.90
3071;DHT22;1546;47.208;9.038;2022-12-10T01:01:44;4.60;99.90
3071;DHT22;1546;47.208;9.038;2022-12-10T01:04:14;4.40;99.90
3071;DHT22;1546;47.208;9.038;2022-12-10T01:06:42;4.30;99.90
3071;DHT22;1546;47.208;9.038;2022-12-10T01:09:12;4.10;99.90
3071;DHT22;1546;47.208;9.038;2022-12-10T01:11:41;4.00;99.90
3071;DHT22;1546;47.208;9.038;2022-12-10T01:14:10;3.90;99.90
3071;DHT22;1546;47.208;9.038;2022-12-10T01:16:37;3.80;99.90
3071;DHT22;1546;47.208;9.038;2022-12-10T01:19:05;3.90;99.90
3071;DHT22;1546;47.208;9.038;2022-12-10T01:21:32;4.10;99.90
3071;DHT22;1546;47.208;9.038;2022-12-10T01:26:30;3.50;99.90
3071;DHT22;1546;47.208;9.038;2022-12-10T01:28:58;4.00;99.90
3071;DHT22;1546;47.208;9.038;2022-12-10T01:31:27;4.10;99.90
3071;DHT22;1546;47.208;9.038;2022-12-10T01:33:55;4.00;99.90
3071;DHT22;1546;47.208;9.038;2022-12-10T01:36:25;4.00;99.90
3071;DHT22;1546;47.208;9.038;2022-12-10T01:38:52;4.00;99.90
3071;DHT22;1546;47.208;9.038;2022-12-10T01:41:21;4.10;99.90
3071;DHT22;1546;47.208;9.038;2022-12-10T01:43:52;4.10;99.90
3071;DHT22;1546;47.208;9.038;2022-12-10T01:46:19;4.20;99.90
3071;DHT22;1546;47.208;9.038;2022-12-10T01:48:46;4.10;99.90
3071;DHT22;1546;47.208;9.038;2022-12-10T01:51:14;4.00;99.90
3071;DHT22;1546;47.208;9.038;2022-12-10T01:53:43;3.90;99.90
3071;DHT22;1546;47.208;9.038;2022-12-10T01:56:12;4.10;99.90
3071;DHT22;1546;47.208;9.038;2022-12-10T01:58:39;4.20;99.90
3071;DHT22;1546;47.208;9.038;2022-12-10T02:01:09;4.20;99.90
3071;DHT22;1546;47.208;9.038;2022-12-10T02:03:52;4.50;99.90
3071;DHT22;1546;47.208;9.038;2022-12-10T02:06:33;4.20;99.90
3071;DHT22;1546;47.208;9.038;2022-12-10T02:09:11;4.20;99.90
3071;DHT22;1546;47.208;9.038;2022-12-10T02:11:43;4.10;99.90
3071;DHT22;1546;47.208;9.038;2022-12-10T02:14:16;4.20;99.90
3071;DHT22;1546;47.208;9.038;2022-12-10T02:16:47;4.20;99.90
3071;DHT22;1546;47.208;9.038;2022-12-10T02:19:20;4.40;99.90
3071;DHT22;1546;47.208;9.038;2022-12-10T02:21:50;4.50;99.90
3071;DHT22;1546;47.208;9.038;2022-12-10T02:24:23;4.50;99.90
3071;DHT22;1546;47.208;9.038;2022-12-10T02:26:58;4.60;99.90
3071;DHT22;1546;47.208;9.038;2022-12-10T02:29:29;4.50;99.90
3071;DHT22;1546;47.208;9.038;2022-12-10T02:32:01;4.80;99.90
3071;DHT22;1546;47.208;9.038;2022-12-10T02:34:32;4.50;99.90
3071;DHT22;1546;47.208;9.038;2022-12-10T02:37:03;4.50;99.90
3071;DHT22;1546;47.208;9.038;2022-12-10T02:39:34;4.20;99.90
3071;DHT22;1546;47.208;9.038;2022-12-10T02:42:04;3.90;99.90
3071;DHT22;1546;47.208;9.038;2022-12-10T02:44:35;3.70;99.90
3071;DHT22;1546;47.208;9.038;2022-12-10T02:47:04;3.80;99.90
3071;DHT22;1546;47.208;9.038;2022-12-10T02:49:32;3.90;99.90
3071;DHT22;1546;47.208;9.038;2022-12-10T02:52:07;4.10;99.90
3071;DHT22;1546;47.208;9.038;2022-12-10T02:54:37;4.20;99.90
3071;DHT22;1546;47.208;9.038;2022-12-10T02:57:21;4.30;99.90
3071;DHT22;1546;47.208;9.038;2022-12-10T03:00:03;4.30;99.90
3071;DHT22;1546;47.208;9.038;2022-12-10T03:02:38;4.40;99.90
3071;DHT22;1546;47.208;9.038;2022-12-10T03:05:12;4.50;99.90
3071;DHT22;1546;47.208;9.038;2022-12-10T03:07:46;4.50;99.90
3071;DHT22;1546;47.208;9.038;2022-12-10T03:10:20;4.60;99.90
3071;DHT22;1546;47.208;9.038;2022-12-10T03:12:54;4.70;99.90
3071;DHT22;1546;47.208;9.038;2022-12-10T03:15:26;4.70;99.90
3071;DHT22;1546;47.208;9.038;2022-12-10T03:17:55;4.80;99.90
3071;DHT22;1546;47.208;9.038;2022-12-10T03:20:23;4.70;99.90
3071;DHT22;1546;47.208;9.038;2022-12-10T03:22:51;4.60;99.90
3071;DHT22;1546;47.208;9.038;2022-12-10T03:25:21;4.50;99.90
3071;DHT22;1546;47.208;9.038;2022-12-10T03:27:51;4.50;99.90
3071;DHT22;1546;47.208;9.038;2022-12-10T03:30:20;4.50;99.90
3071;DHT22;1546;47.208;9.038;2022-12-10T03:32:49;4.50;99.90
3071;DHT22;1546;47.208;9.038;2022-12-10T03:35:17;4.50;99.90
3071;DHT22;1546;47.208;9.038;2022-12-10T03:37:45;4.50;99.90
3071;DHT22;1546;47.208;9.038;2022-12-10T03:40:16;4.60;99.90
3071;DHT22;1546;47.208;9.038;2022-12-10T03:42:44;4.80;99.90
3071;DHT22;1546;47.208;9.038;2022-12-10T03:45:10;4.60;99.90
3071;DHT22;1546;47.208;9.038;2022-12-10T03:47:37;4.40;99.90
3071;DHT22;1546;47.208;9.038;2022-12-10T03:52:34;4.30;99.90
3071;DHT22;1546;47.208;9.038;2022-12-10T03:55:01;4.00;99.90
3071;DHT22;1546;47.208;9.038;2022-12-10T03:57:28;4.30;99.90
3071;DHT22;1546;47.208;9.038;2022-12-10T03:59:55;4.90;99.90
3071;DHT22;1546;47.208;9.038;2022-12-10T04:02:22;4.60;99.90
3071;DHT22;1546;47.208;9.038;2022-12-10T04:04:49;4.40;99.90
3071;DHT22;1546;47.208;9.038;2022-12-10T04:07:17;4.40;99.90
3071;DHT22;1546;47.208;9.038;2022-12-10T04:09:44;3.50;99.90
3071;DHT22;1546;47.208;9.038;2022-12-10T04:12:11;4.10;99.90
3071;DHT22;1546;47.208;9.038;2022-12-10T04:14:38;4.40;99.90
3071;DHT22;1546;47.208;9.038;2022-12-10T04:17:22;5.20;99.90
3071;DHT22;1546;47.208;9.038;2022-12-10T04:19:49;4.10;99.90
3071;DHT22;1546;47.208;9.038;2022-12-10T04:22:17;5.10;99.90
3071;DHT22;1546;47.208;9.038;2022-12-10T04:25:01;5.20;99.90
3071;DHT22;1546;47.208;9.038;2022-12-10T04:27:46;4.40;99.90
3071;DHT22;1546;47.208;9.038;2022-12-10T04:30:13;4.40;99.90
3071;DHT22;1546;47.208;9.038;2022-12-10T04:32:40;4.40;99.90
3071;DHT22;1546;47.208;9.038;2022-12-10T04:35:07;4.40;99.90
3071;DHT22;1546;47.208;9.038;2022-12-10T04:37:36;4.40;99.90
3071;DHT22;1546;47.208;9.038;2022-12-10T04:40:03;4.30;99.90
3071;DHT22;1546;47.208;9.038;2022-12-10T04:42:30;4.30;99.90
3071;DHT22;1546;47.208;9.038;2022-12-10T04:44:57;4.20;99.90
3071;DHT22;1546;47.208;9.038;2022-12-10T04:47:24;4.30;99.90
3071;DHT22;1546;47.208;9.038;2022-12-10T04:49:51;4.30;99.90
3071;DHT22;1546;47.208;9.038;2022-12-10T04:52:18;4.20;99.90
3071;DHT22;1546;47.208;9.038;2022-12-10T04:54:46;4.10;99.90
3071;DHT22;1546;47.208;9.038;2022-12-10T04:57:13;4.10;99.90
3071;DHT22;1546;47.208;9.038;2022-12-10T04:59:40;4.10;99.90
3071;DHT22;1546;47.208;9.038;2022-12-10T05:02:07;4.20;99.90
3071;DHT22;1546;47.208;9.038;2022-12-10T05:04:34;4.20;99.90
3071;DHT22;1546;47.208;9.038;2022-12-10T05:07:01;4.30;99.90
3071;DHT22;1546;47.208;9.038;2022-12-10T05:09:28;4.30;99.90
3071;DHT22;1546;47.208;9.038;2022-12-10T05:11:56;4.20;99.90
3071;DHT22;1546;47.208;9.038;2022-12-10T05:14:23;4.20;99.90
3071;DHT22;1546;47.208;9.038;2022-12-10T05:16:50;4.20;99.90
3071;DHT22;1546;47.208;9.038;2022-12-10T05:19:18;4.10;99.90
3071;DHT22;1546;47.208;9.038;2022-12-10T05:21:47;4.20;99.90
3071;DHT22;1546;47.208;9.038;2022-12-10T05:24:32;4.20;99.90
3071;DHT22;1546;47.208;9.038;2022-12-10T05:27:00;4.30;99.90
3071;DHT22;1546;47.208;9.038;2022-12-10T05:29:27;4.30;99.90
3071;DHT22;1546;47.208;9.038;2022-12-10T05:31:54;4.30;99.90
3071;DHT22;1546;47.208;9.038;2022-12-10T05:34:22;4.30;99.90
3071;DHT22;1546;47.208;9.038;2022-12-10T05:36:49;4.20;99.90
3071;DHT22;1546;47.208;9.038;2022-12-10T05:39:15;4.10;99.90
3071;DHT22;1546;47.208;9.038;2022-12-10T05:41:42;3.90;99.90
3071;DHT22;1546;47.208;9.038;2022-12-10T05:44:12;3.90;99.90
3071;DHT22;1546;47.208;9.038;2022-12-10T05:46:39;3.90;99.90
3071;DHT22;1546;47.208;9.038;2022-12-10T05:49:06;3.80;99.90
3071;DHT22;1546;47.208;9.038;2022-12-10T05:51:36;3.80;99.90
3071;DHT22;1546;47.208;9.038;2022-12-10T05:54:04;3.80;99.90
3071;DHT22;1546;47.208;9.038;2022-12-10T05:56:32;3.70;99.90
3071;DHT22;1546;47.208;9.038;2022-12-10T05:59:01;3.70;99.90
3071;DHT22;1546;47.208;9.038;2022-12-10T06:01:32;3.60;99.90
3071;DHT22;1546;47.208;9.038;2022-12-10T06:04:00;3.60;99.90
3071;DHT22;1546;47.208;9.038;2022-12-10T06:06:29;3.60;99.90
3071;DHT22;1546;47.208;9.038;2022-12-10T06:08:57;3.70;99.90
3071;DHT22;1546;47.208;9.038;2022-12-10T06:11:25;3.80;99.90
3071;DHT22;1546;47.208;9.038;2022-12-10T06:13:52;3.80;99.90
3071;DHT22;1546;47.208;9.038;2022-12-10T06:16:20;3.90;99.90
3071;DHT22;1546;47.208;9.038;2022-12-10T06:18:48;3.90;99.90
3071;DHT22;1546;47.208;9.038;2022-12-10T06:21:16;3.90;99.90
3071;DHT22;1546;47.208;9.038;2022-12-10T06:23:44;4.00;99.90
3071;DHT22;1546;47.208;9.038;2022-12-10T06:26:12;4.00;99.90
3071;DHT22;1546;47.208;9.038;2022-12-10T06:28:40;4.00;99.90
3071;DHT22;1546;47.208;9.038;2022-12-10T06:31:07;3.70;99.90
3071;DHT22;1546;47.208;9.038;2022-12-10T06:33:34;3.60;99.90
3071;DHT22;1546;47.208;9.038;2022-12-10T06:36:05;3.60;99.90
3071;DHT22;1546;47.208;9.038;2022-12-10T06:38:32;3.60;99.90
3071;DHT22;1546;47.208;9.038;2022-12-10T06:40:59;3.70;99.90
3071;DHT22;1546;47.208;9.038;2022-12-10T06:43:28;3.70;99.90
3071;DHT22;1546;47.208;9.038;2022-12-10T06:45:55;4.00;99.90
3071;DHT22;1546;47.208;9.038;2022-12-10T06:48:22;3.50;99.90
3071;DHT22;1546;47.208;9.038;2022-12-10T06:50:48;3.60;99.90
3071;DHT22;1546;47.208;9.038;2022-12-10T06:53:17;3.60;99.90
3071;DHT22;1546;47.208;9.038;2022-12-10T06:55:43;3.60;99.90
3071;DHT22;1546;47.208;9.038;2022-12-10T06:58:10;3.60;99.90
3071;DHT22;1546;47.208;9.038;2022-12-10T07:00:37;3.70;99.90
3071;DHT22;1546;47.208;9.038;2022-12-10T07:03:04;3.70;99.90
3071;DHT22;1546;47.208;9.038;2022-12-10T07:05:30;3.70;99.90
3071;DHT22;1546;47.208;9.038;2022-12-10T07:07:57;3.70;99.90
3071;DHT22;1546;47.208;9.038;2022-12-10T07:10:26;3.60;99.90
3071;DHT22;1546;47.208;9.038;2022-12-10T07:12:52;3.60;99.90
3071;DHT22;1546;47.208;9.038;2022-12-10T07:15:20;3.80;99.90
3071;DHT22;1546;47.208;9.038;2022-12-10T07:17:50;3.80;99.90
3071;DHT22;1546;47.208;9.038;2022-12-10T07:20:17;3.80;99.90
3071;DHT22;1546;47.208;9.038;2022-12-10T07:22:43;3.80;99.90
3071;DHT22;1546;47.208;9.038;2022-12-10T07:25:10;3.90;99.90
3071;DHT22;1546;47.208;9.038;2022-12-10T07:27:38;3.90;99.90
3071;DHT22;1546;47.208;9.038;2022-12-10T07:30:06;3.90;99.90
3071;DHT22;1546;47.208;9.038;2022-12-10T07:32:33;4.00;99.90
3071;DHT22;1546;47.208;9.038;2022-12-10T07:35:00;4.00;99.90
3071;DHT22;1546;47.208;9.038;2022-12-10T07:37:26;4.20;99.90
3071;DHT22;1546;47.208;9.038;2022-12-10T07:39:53;4.20;99.90
3071;DHT22;1546;47.208;9.038;2022-12-10T07:42:20;4.20;99.90
3071;DHT22;1546;47.208;9.038;2022-12-10T07:44:49;4.20;99.90
3071;DHT22;1546;47.208;9.038;2022-12-10T07:47:15;4.20;99.90
3071;DHT22;1546;47.208;9.038;2022-12-10T07:49:42;4.20;99.90
3071;DHT22;1546;47.208;9.038;2022-12-10T07:52:09;4.20;99.90
3071;DHT22;1546;47.208;9.038;2022-12-10T07:54:36;4.20;99.90
3071;DHT22;1546;47.208;9.038;2022-12-10T07:57:03;4.20;99.90
3071;DHT22;1546;47.208;9.038;2022-12-10T07:59:29;4.30;99.90
3071;DHT22;1546;47.208;9.038;2022-12-10T08:01:58;4.30;99.90
3071;DHT22;1546;47.208;9.038;2022-12-10T08:04:27;4.30;99.90
3071;DHT22;1546;47.208;9.038;2022-12-10T08:06:55;4.20;99.90
3071;DHT22;1546;47.208;9.038;2022-12-10T08:09:22;4.20;99.90
3071;DHT22;1546;47.208;9.038;2022-12-10T08:11:49;4.20;99.90
3071;DHT22;1546;47.208;9.038;2022-12-10T08:14:16;4.30;99.90
3071;DHT22;1546;47.208;9.038;2022-12-10T08:16:43;4.30;99.90
3071;DHT22;1546;47.208;9.038;2022-12-10T08:19:11;4.30;99.90
3071;DHT22;1546;47.208;9.038;2022-12-10T08:21:38;4.30;99.90
3071;DHT22;1546;47.208;9.038;2022-12-10T08:24:05;4.30;99.90
3071;DHT22;1546;47.208;9.038;2022-12-10T08:26:33;4.30;99.90
3071;DHT22;1546;47.208;9.038;2022-12-10T08:29:00;4.30;99.90
3071;DHT22;1546;47.208;9.038;2022-12-10T08:31:27;4.10;99.90
3071;DHT22;1546;47.208;9.038;2022-12-10T08:33:54;4.10;99.90
3071;DHT22;1546;47.208;9.038;2022-12-10T08:36:23;4.10;99.90
3071;DHT22;1546;47.208;9.038;2022-12-10T08:38:50;4.20;99.90
3071;DHT22;1546;47.208;9.038;2022-12-10T08:41:19;4.30;99.90
3071;DHT22;1546;47.208;9.038;2022-12-10T08:43:46;4.20;99.90
3071;DHT22;1546;47.208;9.038;2022-12-10T08:46:13;4.20;99.90
3071;DHT22;1546;47.208;9.038;2022-12-10T08:48:41;4.20;99.90
3071;DHT22;1546;47.208;9.038;2022-12-10T08:51:10;4.10;99.90
3071;DHT22;1546;47.208;9.038;2022-12-10T08:53:39;4.10;99.90
3071;DHT22;1546;47.208;9.038;2022-12-10T08:56:06;4.20;99.90
3071;DHT22;1546;47.208;9.038;2022-12-10T08:58:33;4.20;99.90
3071;DHT22;1546;47.208;9.038;2022-12-10T09:01:05;4.20;99.90
3071;DHT22;1546;47.208;9.038;2022-12-10T09:03:32;4.30;99.90
3071;DHT22;1546;47.208;9.038;2022-12-10T09:06:02;4.20;99.90
3071;DHT22;1546;47.208;9.038;2022-12-10T09:08:29;4.20;99.90
3071;DHT22;1546;47.208;9.038;2022-12-10T09:10:57;4.20;99.90
3071;DHT22;1546;47.208;9.038;2022-12-10T09:13:24;4.20;99.90
3071;DHT22;1546;47.208;9.038;2022-12-10T09:15:52;4.20;99.90
3071;DHT22;1546;47.208;9.038;2022-12-10T09:18:19;4.30;99.90
3071;DHT22;1546;47.208;9.038;2022-12-10T09:20:45;4.30;99.90
3071;DHT22;1546;47.208;9.038;2022-12-10T09:23:12;4.30;99.90
3071;DHT22;1546;47.208;9.038;2022-12-10T09:25:39;4.30;99.90
3071;DHT22;1546;47.208;9.038;2022-12-10T09:28:07;4.30;99.90
3071;DHT22;1546;47.208;9.038;2022-12-10T09:30:34;4.30;99.90
3071;DHT22;1546;47.208;9.038;2022-12-10T09:33:02;4.40;99.90
3071;DHT22;1546;47.208;9.038;2022-12-10T09:35:28;4.50;99.90
3071;DHT22;1546;47.208;9.038;2022-12-10T09:37:56;4.50;99.90
3071;DHT22;1546;47.208;9.038;2022-12-10T09:40:32;4.60;99.90
3071;DHT22;1546;47.208;9.038;2022-12-10T09:43:06;4.60;99.90
3071;DHT22;1546;47.208;9.038;2022-12-10T09:45:43;4.60;99.90
3071;DHT22;1546;47.208;9.038;2022-12-10T09:48:19;4.60;99.90
3071;DHT22;1546;47.208;9.038;2022-12-10T09:50:53;4.60;99.90
3071;DHT22;1546;47.208;9.038;2022-12-10T09:53:24;4.60;99.90
3071;DHT22;1546;47.208;9.038;2022-12-10T09:55:53;4.60;99.90
3071;DHT22;1546;47.208;9.038;2022-12-10T09:58:22;4.70;99.90
3071;DHT22;1546;47.208;9.038;2022-12-10T10:00:55;4.70;99.90
3071;DHT22;1546;47.208;9.038;2022-12-10T10:03:23;4.60;99.90
3071;DHT22;1546;47.208;9.038;2022-12-10T10:05:52;4.60;99.90
3071;DHT22;1546;47.208;9.038;2022-12-10T10:08:26;4.50;99.90
3071;DHT22;1546;47.208;9.038;2022-12-10T10:10:53;4.60;99.90
3071;DHT22;1546;47.208;9.038;2022-12-10T10:13:28;4.70;99.90
3071;DHT22;1546;47.208;9.038;2022-12-10T10:16:12;4.50;99.90
3071;DHT22;1546;47.208;9.038;2022-12-10T10:18:41;4.50;99.90
3071;DHT22;1546;47.208;9.038;2022-12-10T10:21:16;4.50;99.90
3071;DHT22;1546;47.208;9.038;2022-12-10T10:23:45;4.40;99.90
3071;DHT22;1546;47.208;9.038;2022-12-10T10:26:12;4.40;99.90
3071;DHT22;1546;47.208;9.038;2022-12-10T10:28:40;4.50;99.90
3071;DHT22;1546;47.208;9.038;2022-12-10T10:31:17;4.40;99.90
3071;DHT22;1546;47.208;9.038;2022-12-10T10:33:48;4.30;99.90
3071;DHT22;1546;47.208;9.038;2022-12-10T10:36:16;4.30;99.90
3071;DHT22;1546;47.208;9.038;2022-12-10T10:38:48;4.30;99.90
3071;DHT22;1546;47.208;9.038;2022-12-10T10:41:15;4.20;99.90
3071;DHT22;1546;47.208;9.038;2022-12-10T10:43:43;4.20;99.90
3071;DHT22;1546;47.208;9.038;2022-12-10T10:46:14;4.10;99.90
3071;DHT22;1546;47.208;9.038;2022-12-10T10:48:41;4.10;99.90
3071;DHT22;1546;47.208;9.038;2022-12-10T10:51:15;4.20;99.90
3071;DHT22;1546;47.208;9.038;2022-12-10T10:53:47;4.30;99.90
3071;DHT22;1546;47.208;9.038;2022-12-10T10:56:17;4.20;99.90
3071;DHT22;1546;47.208;9.038;2022-12-10T10:58:55;4.20;99.90
3071;DHT22;1546;47.208;9.038;2022-12-10T11:01:26;4.10;99.90
3071;DHT22;1546;47.208;9.038;2022-12-10T11:03:56;4.10;99.90
3071;DHT22;1546;47.208;9.038;2022-12-10T11:06:24;4.10;99.90
3071;DHT22;1546;47.208;9.038;2022-12-10T11:08:54;4.10;99.90
3071;DHT22;1546;47.208;9.038;2022-12-10T11:11:25;4.00;99.90
3071;DHT22;1546;47.208;9.038;2022-12-10T11:14:13;3.90;99.90
3071;DHT22;1546;47.208;9.038;2022-12-10T11:16:41;3.80;99.90
3071;DHT22;1546;47.208;9.038;2022-12-10T11:19:19;3.80;99.90
3071;DHT22;1546;47.208;9.038;2022-12-10T11:21:47;3.80;99.90
3071;DHT22;1546;47.208;9.038;2022-12-10T11:24:18;3.80;99.90
3071;DHT22;1546;47.208;9.038;2022-12-10T11:26:59;3.80;99.90
3071;DHT22;1546;47.208;9.038;2022-12-10T11:29:46;3.90;99.90
3071;DHT22;1546;47.208;9.038;2022-12-10T11:35:18;4.10;99.90
3071;DHT22;1546;47.208;9.038;2022-12-10T11:37:52;4.10;99.90
3071;DHT22;1546;47.208;9.038;2022-12-10T11:40:32;4.10;99.90
3071;DHT22;1546;47.208;9.038;2022-12-10T11:43:17;4.00;99.90
3071;DHT22;1546;47.208;9.038;2022-12-10T11:45:54;3.90;99.90
3071;DHT22;1546;47.208;9.038;2022-12-10T11:48:34;3.70;99.90
3071;DHT22;1546;47.208;9.038;2022-12-10T11:51:11;3.70;99.90
3071;DHT22;1546;47.208;9.038;2022-12-10T11:53:55;3.80;99.90
3071;DHT22;1546;47.208;9.038;2022-12-10T11:56:26;3.90;99.90
3071;DHT22;1546;47.208;9.038;2022-12-10T11:59:08;3.90;99.90
3071;DHT22;1546;47.208;9.038;2022-12-10T12:01:48;3.90;99.90
3071;DHT22;1546;47.208;9.038;2022-12-10T12:04:28;3.70;99.90
3071;DHT22;1546;47.208;9.038;2022-12-10T12:07:19;3.70;99.90
3071;DHT22;1546;47.208;9.038;2022-12-10T12:09:59;3.60;99.90
3071;DHT22;1546;47.208;9.038;2022-12-10T12:12:37;3.30;99.90
3071;DHT22;1546;47.208;9.038;2022-12-10T12:15:13;3.40;99.90
3071;DHT22;1546;47.208;9.038;2022-12-10T12:17:47;3.50;99.90
3071;DHT22;1546;47.208;9.038;2022-12-10T12:20:19;3.50;99.90
3071;DHT22;1546;47.208;9.038;2022-12-10T12:22:51;3.70;99.90
3071;DHT22;1546;47.208;9.038;2022-12-10T12:25:22;3.70;99.90
3071;DHT22;1546;47.208;9.038;2022-12-10T12:27:53;3.70;99.90
3071;DHT22;1546;47.208;9.038;2022-12-10T12:30:22;3.80;99.90
3071;DHT22;1546;47.208;9.038;2022-12-10T12:32:55;3.80;99.90
3071;DHT22;1546;47.208;9.038;2022-12-10T12:35:38;3.70;99.90
3071;DHT22;1546;47.208;9.038;2022-12-10T12:38:19;3.70;99.90
3071;DHT22;1546;47.208;9.038;2022-12-10T12:40:51;3.40;99.90
3071;DHT22;1546;47.208;9.038;2022-12-10T12:43:22;3.30;99.90
3071;DHT22;1546;47.208;9.038;2022-12-10T12:45:53;3.20;99.90
3071;DHT22;1546;47.208;9.038;2022-12-10T12:48:25;3.30;99.90
3071;DHT22;1546;47.208;9.038;2022-12-10T12:50:59;3.40;99.90
3071;DHT22;1546;47.208;9.038;2022-12-10T12:53:26;3.50;99.90
3071;DHT22;1546;47.208;9.038;2022-12-10T12:55:58;3.70;99.90
3071;DHT22;1546;47.208;9.038;2022-12-10T12:58:32;3.90;99.90
3071;DHT22;1546;47.208;9.038;2022-12-10T13:01:11;3.80;99.90
3071;DHT22;1546;47.208;9.038;2022-12-10T13:03:41;3.70;99.90
3071;DHT22;1546;47.208;9.038;2022-12-10T13:06:15;3.80;99.90
3071;DHT22;1546;47.208;9.038;2022-12-10T13:08:43;3.80;99.90
3071;DHT22;1546;47.208;9.038;2022-12-10T13:11:34;3.90;99.90
3071;DHT22;1546;47.208;9.038;2022-12-10T13:14:15;3.80;99.90
3071;DHT22;1546;47.208;9.038;2022-12-10T13:16:50;3.80;99.90
3071;DHT22;1546;47.208;9.038;2022-12-10T13:19:26;3.90;99.90
3071;DHT22;1546;47.208;9.038;2022-12-10T13:22:00;3.80;99.90
3071;DHT22;1546;47.208;9.038;2022-12-10T13:24:59;3.70;99.90
3071;DHT22;1546;47.208;9.038;2022-12-10T13:27:30;3.60;99.90
3071;DHT22;1546;47.208;9.038;2022-12-10T13:30:02;3.50;99.90
3071;DHT22;1546;47.208;9.038;2022-12-10T13:32:46;3.30;99.90
3071;DHT22;1546;47.208;9.038;2022-12-10T13:35:27;3.30;99.90
3071;DHT22;1546;47.208;9.038;2022-12-10T13:38:02;3.20;99.90
3071;DHT22;1546;47.208;9.038;2022-12-10T13:40:38;3.20;99.90
3071;DHT22;1546;47.208;9.038;2022-12-10T13:43:26;3.30;99.90
3071;DHT22;1546;47.208;9.038;2022-12-10T13:46:30;3.10;99.90
3071;DHT22;1546;47.208;9.038;2022-12-10T13:48:58;3.10;99.90
3071;DHT22;1546;47.208;9.038;2022-12-10T13:51:39;3.20;99.90
3071;DHT22;1546;47.208;9.038;2022-12-10T13:54:29;3.30;99.90
3071;DHT22;1546;47.208;9.038;2022-12-10T13:57:05;3.40;99.90
3071;DHT22;1546;47.208;9.038;2022-12-10T13:59:41;3.30;99.90
3071;DHT22;1546;47.208;9.038;2022-12-10T14:02:26;3.40;99.90
3071;DHT22;1546;47.208;9.038;2022-12-10T14:05:27;3.10;99.90
3071;DHT22;1546;47.208;9.038;2022-12-10T14:08:02;2.80;99.90
3071;DHT22;1546;47.208;9.038;2022-12-10T14:10:33;2.70;99.90
3071;DHT22;1546;47.208;9.038;2022-12-10T14:13:02;2.80;99.90
3071;DHT22;1546;47.208;9.038;2022-12-10T14:15:30;2.90;99.90
3071;DHT22;1546;47.208;9.038;2022-12-10T14:18:02;3.00;99.90
3071;DHT22;1546;47.208;9.038;2022-12-10T14:20:31;3.00;99.90
3071;DHT22;1546;47.208;9.038;2022-12-10T14:23:03;3.20;99.90
3071;DHT22;1546;47.208;9.038;2022-12-10T14:25:46;3.30;99.90
3071;DHT22;1546;47.208;9.038;2022-12-10T14:28:15;3.60;99.90
3071;DHT22;1546;47.208;9.038;2022-12-10T14:30:44;3.70;99.90
3071;DHT22;1546;47.208;9.038;2022-12-10T14:33:13;3.60;99.90
3071;DHT22;1546;47.208;9.038;2022-12-10T14:35:41;3.40;99.90
3071;DHT22;1546;47.208;9.038;2022-12-10T14:38:17;3.50;99.90
3071;DHT22;1546;47.208;9.038;2022-12-10T14:40:47;3.50;99.90
3071;DHT22;1546;47.208;9.038;2022-12-10T14:43:17;3.50;99.90
3071;DHT22;1546;47.208;9.038;2022-12-10T14:45:47;3.50;99.90
3071;DHT22;1546;47.208;9.038;2022-12-10T14:48:17;3.50;99.90
3071;DHT22;1546;47.208;9.038;2022-12-10T14:50:44;3.30;99.90
3071;DHT22;1546;47.208;9.038;2022-12-10T14:53:14;3.30;99.90
3071;DHT22;1546;47.208;9.038;2022-12-10T14:55:42;3.30;99.90
3071;DHT22;1546;47.208;9.038;2022-12-10T14:58:15;3.40;99.90
3071;DHT22;1546;47.208;9.038;2022-12-10T15:00:45;3.50;99.90
3071;DHT22;1546;47.208;9.038;2022-12-10T15:03:19;3.60;99.90
3071;DHT22;1546;47.208;9.038;2022-12-10T15:05:54;3.60;99.90
3071;DHT22;1546;47.208;9.038;2022-12-10T15:08:21;3.70;99.90
3071;DHT22;1546;47.208;9.038;2022-12-10T15:10:52;3.70;99.90
3071;DHT22;1546;47.208;9.038;2022-12-10T15:13:23;3.80;99.90
3071;DHT22;1546;47.208;9.038;2022-12-10T15:15:51;3.70;99.90
3071;DHT22;1546;47.208;9.038;2022-12-10T15:18:21;3.80;99.90
3071;DHT22;1546;47.208;9.038;2022-12-10T15:20:53;3.80;99.90
3071;DHT22;1546;47.208;9.038;2022-12-10T15:23:29;3.80;99.90
3071;DHT22;1546;47.208;9.038;2022-12-10T15:25:59;3.70;99.90
3071;DHT22;1546;47.208;9.038;2022-12-10T15:28:30;3.70;99.90
3071;DHT22;1546;47.208;9.038;2022-12-10T15:31:08;3.50;99.90
3071;DHT22;1546;47.208;9.038;2022-12-10T15:33:37;3.50;99.90
3071;DHT22;1546;47.208;9.038;2022-12-10T15:36:11;3.50;99.90
3071;DHT22;1546;47.208;9.038;2022-12-10T15:38:43;3.40;99.90
3071;DHT22;1546;47.208;9.038;2022-12-10T15:41:30;3.30;99.90
3071;DHT22;1546;47.208;9.038;2022-12-10T15:44:01;3.20;99.90
3071;DHT22;1546;47.208;9.038;2022-12-10T15:46:29;3.10;99.90
3071;DHT22;1546;47.208;9.038;2022-12-10T15:48:56;3.00;99.90
3071;DHT22;1546;47.208;9.038;2022-12-10T15:51:23;2.90;99.90
3071;DHT22;1546;47.208;9.038;2022-12-10T15:53:51;2.90;99.90
3071;DHT22;1546;47.208;9.038;2022-12-10T15:56:18;2.80;99.90
3071;DHT22;1546;47.208;9.038;2022-12-10T15:58:44;2.80;99.90
3071;DHT22;1546;47.208;9.038;2022-12-10T16:01:13;2.80;99.90
3071;DHT22;1546;47.208;9.038;2022-12-10T16:03:41;2.70;99.90
3071;DHT22;1546;47.208;9.038;2022-12-10T16:06:08;2.70;99.90
3071;DHT22;1546;47.208;9.038;2022-12-10T16:08:35;2.70;99.90
3071;DHT22;1546;47.208;9.038;2022-12-10T16:11:09;2.70;99.90
3071;DHT22;1546;47.208;9.038;2022-12-10T16:13:37;2.70;99.90
3071;DHT22;1546;47.208;9.038;2022-12-10T16:16:07;2.70;99.90
3071;DHT22;1546;47.208;9.038;2022-12-10T16:18:36;2.70;99.90
3071;DHT22;1546;47.208;9.038;2022-12-10T16:21:04;2.80;99.90
3071;DHT22;1546;47.208;9.038;2022-12-10T16:23:31;2.80;99.90
3071;DHT22;1546;47.208;9.038;2022-12-10T16:25:58;2.80;99.90
3071;DHT22;1546;47.208;9.038;2022-12-10T16:28:26;2.70;99.90
3071;DHT22;1546;47.208;9.038;2022-12-10T16:30:54;2.70;99.90
3071;DHT22;1546;47.208;9.038;2022-12-10T16:33:23;2.70;99.90
3071;DHT22;1546;47.208;9.038;2022-12-10T16:35:52;2.70;99.90
3071;DHT22;1546;47.208;9.038;2022-12-10T16:38:20;2.70;99.90
3071;DHT22;1546;47.208;9.038;2022-12-10T16:40:47;2.70;99.90
3071;DHT22;1546;47.208;9.038;2022-12-10T16:43:16;2.80;99.90
3071;DHT22;1546;47.208;9.038;2022-12-10T16:45:44;2.80;99.90